Time;durP1;ratioP1;P1;durP2;ratioP2;P2;SDS_P1;SDS_P2;PMS_P1;PMS_P2;Temp;Humidity;BMP_temperature;BMP_pressure;BME280_temperature;BME280_humidity;BME280_pressure;Samples;Min_cycle;Max_cycle;Signal;HPM_P1;HPM_P2
2022/03/17 00:02:09;;;;;;;27.40;10.18;;;6.10;85.40;;;;;;5114290;27;20044;-75
2022/03/17 00:04:36;;;;;;;25.73;9.73;;;6.30;84.90;;;;;;5111409;28;20430;-75
2022/03/17 00:07:03;;;;;;;24.08;10.60;;;6.40;84.40;;;;;;5092706;28;20059;-75
2022/03/17 00:09:30;;;;;;;27.20;10.35;;;6.50;82.70;;;;;;5107250;28;20055;-75
2022/03/17 00:11:57;;;;;;;23.58;9.77;;;6.50;82.90;;;;;;5108762;28;20039;-74
2022/03/17 00:14:24;;;;;;;18.13;8.35;;;6.50;82.70;;;;;;5083298;28;20043;-75
2022/03/17 00:26:34;;;;;;;20.63;8.63;;;6.20;83.20;;;;;;5110888;28;20539;-75
2022/03/17 00:29:08;;;;;;;19.25;9.10;;;6.30;82.80;;;;;;5096787;28;20126;-75
2022/03/17 00:31:39;;;;;;;20.77;10.23;;;6.40;82.50;;;;;;5112431;28;20040;-75
2022/03/17 00:34:08;;;;;;;27.63;10.77;;;6.30;82.40;;;;;;5108400;28;20063;-75
2022/03/17 00:36:36;;;;;;;23.02;10.25;;;6.30;83.00;;;;;;5111900;28;20048;-75
2022/03/17 00:39:05;;;;;;;20.23;9.40;;;6.30;82.10;;;;;;5092271;28;20040;-75
2022/03/17 00:41:32;;;;;;;21.33;10.10;;;6.20;82.50;;;;;;5076788;28;20130;-75
2022/03/17 00:44:00;;;;;;;22.05;10.00;;;6.30;81.90;;;;;;5083904;27;20566;-75
2022/03/17 00:46:27;;;;;;;22.63;10.73;;;6.20;81.80;;;;;;5114330;27;20144;-75
2022/03/17 00:48:54;;;;;;;20.45;8.15;;;6.20;81.90;;;;;;5100517;27;20047;-75
2022/03/17 00:51:21;;;;;;;21.67;9.68;;;6.40;81.40;;;;;;5096095;27;20480;-74
2022/03/17 00:53:49;;;;;;;19.35;8.70;;;6.40;81.20;;;;;;5092976;27;20064;-75
2022/03/17 00:56:17;;;;;;;20.00;8.77;;;6.20;82.10;;;;;;5112765;27;20036;-75
2022/03/17 00:58:45;;;;;;;21.17;9.27;;;6.10;82.00;;;;;;5111337;27;20038;-75
2022/03/17 01:01:15;;;;;;;22.02;8.93;;;6.20;81.80;;;;;;5115802;27;20571;-75
2022/03/17 01:03:46;;;;;;;17.58;7.75;;;6.00;82.20;;;;;;5111613;27;20406;-75
2022/03/17 01:06:14;;;;;;;17.85;8.50;;;5.90;82.30;;;;;;5094882;27;20063;-75
2022/03/17 01:08:41;;;;;;;19.35;9.13;;;5.80;82.80;;;;;;5095782;27;20100;-74
2022/03/17 01:11:08;;;;;;;19.58;8.93;;;5.80;82.20;;;;;;5077096;27;20162;-75
2022/03/17 01:13:35;;;;;;;16.27;8.18;;;5.70;82.60;;;;;;5079303;27;20199;-75
2022/03/17 01:16:03;;;;;;;18.13;8.77;;;5.80;82.10;;;;;;5094626;27;20089;-75
2022/03/17 01:18:30;;;;;;;25.02;9.13;;;5.90;82.40;;;;;;5095926;27;20429;-74
2022/03/17 01:20:57;;;;;;;23.52;10.43;;;5.90;82.40;;;;;;5113389;27;20050;-75
2022/03/17 01:23:25;;;;;;;18.65;9.50;;;5.70;82.60;;;;;;5080837;27;20151;-74
2022/03/17 01:25:52;;;;;;;26.38;10.57;;;5.70;83.00;;;;;;5096773;27;20047;-74
2022/03/17 01:28:19;;;;;;;20.73;9.52;;;5.70;83.00;;;;;;5082239;27;20088;-75
2022/03/17 01:30:46;;;;;;;16.17;8.00;;;5.80;84.20;;;;;;5100188;27;20051;-75
2022/03/17 01:33:13;;;;;;;17.98;8.73;;;5.90;83.80;;;;;;5091820;27;20043;-75
2022/03/17 01:35:40;;;;;;;22.10;8.68;;;6.10;82.90;;;;;;5098426;27;20059;-75
2022/03/17 01:38:07;;;;;;;17.95;8.50;;;6.10;82.60;;;;;;5097176;27;20039;-75
2022/03/17 01:40:35;;;;;;;17.25;8.23;;;6.10;82.80;;;;;;5098963;27;20727;-74
2022/03/17 01:43:02;;;;;;;20.27;9.32;;;6.10;82.40;;;;;;5111945;27;20100;-75
2022/03/17 01:45:29;;;;;;;16.85;8.57;;;6.10;82.40;;;;;;5116082;27;20040;-75
2022/03/17 01:47:57;;;;;;;18.52;8.55;;;6.10;82.40;;;;;;5095590;27;20040;-75
2022/03/17 01:50:24;;;;;;;21.25;9.20;;;6.00;82.80;;;;;;5081968;27;20043;-75
2022/03/17 01:52:51;;;;;;;21.52;9.73;;;5.90;82.90;;;;;;5113035;27;20042;-75
2022/03/17 01:55:18;;;;;;;20.27;8.25;;;5.90;82.70;;;;;;5099010;27;20088;-75
2022/03/17 01:57:46;;;;;;;20.10;9.10;;;5.90;83.10;;;;;;5096848;27;20054;-75
2022/03/17 02:00:17;;;;;;;21.98;10.38;;;5.90;82.70;;;;;;5114248;27;20470;-75
2022/03/17 02:02:47;;;;;;;24.55;9.13;;;5.90;83.30;;;;;;5093329;27;20047;-75
2022/03/17 02:05:14;;;;;;;22.08;9.27;;;5.70;83.90;;;;;;5079897;27;20528;-75
2022/03/17 02:07:51;;;;;;;24.73;10.82;;;5.70;84.50;;;;;;5111400;27;20099;-75
2022/03/17 02:10:21;;;;;;;20.92;10.27;;;5.80;84.60;;;;;;5099025;27;20566;-74
2022/03/17 02:15:34;;;;;;;20.42;9.30;;;5.90;85.20;;;;;;5114526;27;20744;-75
2022/03/17 02:18:06;;;;;;;22.88;10.43;;;5.80;85.80;;;;;;5077743;27;20043;-75
2022/03/17 02:20:34;;;;;;;23.88;10.25;;;5.90;85.20;;;;;;5077261;27;20046;-75
2022/03/17 02:26:05;;;;;;;22.08;10.45;;;6.00;84.40;;;;;;5093817;27;20059;-75
2022/03/17 02:28:33;;;;;;;23.83;10.00;;;6.00;84.10;;;;;;5112444;27;20061;-75
2022/03/17 02:31:01;;;;;;;19.90;8.77;;;6.00;83.80;;;;;;5098092;27;20737;-75
2022/03/17 02:33:29;;;;;;;21.83;9.43;;;6.10;83.70;;;;;;5093592;27;20039;-75
2022/03/17 02:35:57;;;;;;;20.70;9.95;;;6.20;83.20;;;;;;5109996;27;20095;-75
2022/03/17 02:38:24;;;;;;;22.38;10.00;;;6.30;82.80;;;;;;5096376;27;20047;-75
2022/03/17 02:40:52;;;;;;;20.65;9.40;;;6.30;82.60;;;;;;5074471;27;20044;-75
2022/03/17 02:43:20;;;;;;;22.15;9.38;;;6.40;82.40;;;;;;5096340;27;20056;-75
2022/03/17 02:45:47;;;;;;;18.08;9.20;;;6.20;82.80;;;;;;5091825;27;20047;-75
2022/03/17 02:48:16;;;;;;;21.92;9.18;;;6.30;82.80;;;;;;5108379;27;21313;-75
2022/03/17 02:50:45;;;;;;;17.55;9.25;;;6.20;82.70;;;;;;5073275;27;20147;-75
2022/03/17 02:53:13;;;;;;;20.75;9.40;;;6.30;82.60;;;;;;5095903;27;20035;-75
2022/03/17 02:55:43;;;;;;;19.83;8.73;;;6.30;82.60;;;;;;5093395;27;20047;-75
2022/03/17 02:58:10;;;;;;;20.25;10.05;;;6.30;82.30;;;;;;5079880;27;20452;-75
2022/03/17 03:00:38;;;;;;;25.90;9.43;;;6.50;81.60;;;;;;5096514;27;20039;-75
2022/03/17 03:03:06;;;;;;;21.15;9.27;;;6.40;81.20;;;;;;5097267;27;20096;-75
2022/03/17 03:05:34;;;;;;;18.77;8.70;;;6.40;81.00;;;;;;5095373;28;20047;-75
2022/03/17 03:08:02;;;;;;;23.95;9.82;;;6.30;81.60;;;;;;5096336;27;20051;-75
2022/03/17 03:10:30;;;;;;;22.92;9.30;;;6.40;81.10;;;;;;5111988;27;20112;-74
2022/03/17 03:12:58;;;;;;;23.10;11.38;;;6.30;81.00;;;;;;5096491;27;20420;-75
2022/03/17 03:15:25;;;;;;;21.33;9.88;;;6.10;82.20;;;;;;5110599;27;20064;-75
2022/03/17 03:17:54;;;;;;;22.38;9.70;;;6.10;82.00;;;;;;5116297;27;20827;-74
2022/03/17 03:20:22;;;;;;;19.98;9.30;;;6.30;80.80;;;;;;5094130;27;20094;-74
2022/03/17 03:22:49;;;;;;;20.13;9.18;;;6.30;80.60;;;;;;5094003;27;20055;-75
2022/03/17 03:25:16;;;;;;;21.85;10.15;;;6.20;80.60;;;;;;5091591;27;20047;-74
2022/03/17 03:27:44;;;;;;;20.27;9.27;;;6.00;81.40;;;;;;5069650;28;20044;-75
2022/03/17 03:30:13;;;;;;;21.73;9.85;;;6.00;81.60;;;;;;5110783;27;20039;-75
2022/03/17 03:32:44;;;;;;;23.85;10.20;;;6.20;81.30;;;;;;5074134;27;20459;-75
2022/03/17 03:37:58;;;;;;;19.17;9.60;;;6.10;81.40;;;;;;5094371;28;20055;-75
2022/03/17 03:40:25;;;;;;;25.05;10.40;;;6.10;81.00;;;;;;5075550;28;20127;-75
2022/03/17 03:42:52;;;;;;;22.55;9.98;;;6.10;81.10;;;;;;5072109;28;20056;-75
2022/03/17 03:45:20;;;;;;;24.65;10.90;;;6.20;80.80;;;;;;5054777;28;20967;-75
2022/03/17 03:47:47;;;;;;;28.10;9.98;;;6.10;80.80;;;;;;5073261;28;20044;-75
2022/03/17 03:50:14;;;;;;;22.15;9.77;;;6.20;80.60;;;;;;5071160;28;20090;-75
2022/03/17 03:52:41;;;;;;;24.05;9.68;;;6.20;80.30;;;;;;5057720;28;20604;-75
2022/03/17 03:55:08;;;;;;;24.48;10.90;;;6.20;80.10;;;;;;5070132;28;20036;-75
2022/03/17 03:57:36;;;;;;;19.50;9.30;;;6.30;79.90;;;;;;5067616;28;20769;-75
2022/03/17 04:02:51;;;;;;;20.10;9.88;;;6.00;81.20;;;;;;5068256;28;20494;-75
2022/03/17 04:05:20;;;;;;;26.90;9.75;;;5.80;82.00;;;;;;5071651;28;20036;-75
2022/03/17 04:07:48;;;;;;;28.10;11.52;;;5.70;82.30;;;;;;5071292;28;20134;-75
2022/03/17 04:10:19;;;;;;;33.35;12.40;;;5.90;81.70;;;;;;5056866;28;20052;-75
2022/03/17 04:12:47;;;;;;;28.35;12.07;;;5.60;82.10;;;;;;5070049;28;20028;-75
2022/03/17 04:15:14;;;;;;;29.45;12.48;;;5.70;82.20;;;;;;5069972;28;20724;-74
2022/03/17 04:17:41;;;;;;;24.08;11.57;;;5.80;81.70;;;;;;5073083;28;20032;-74
2022/03/17 04:20:09;;;;;;;22.15;11.40;;;5.80;81.50;;;;;;5074549;28;20040;-74
2022/03/17 04:22:37;;;;;;;23.42;11.30;;;5.80;80.70;;;;;;5060148;28;20388;-74
2022/03/17 04:25:05;;;;;;;20.52;10.23;;;5.90;80.60;;;;;;5088728;28;20063;-74
2022/03/17 04:27:32;;;;;;;23.30;10.15;;;6.10;79.80;;;;;;5073940;28;20040;-74
2022/03/17 04:29:59;;;;;;;25.60;10.30;;;6.10;79.30;;;;;;5068583;28;20048;-74
2022/03/17 04:32:26;;;;;;;25.02;11.35;;;6.00;79.20;;;;;;5059184;28;20055;-74
2022/03/17 04:34:53;;;;;;;23.27;10.40;;;5.90;79.30;;;;;;5073564;28;20040;-75
2022/03/17 04:37:20;;;;;;;24.92;11.30;;;5.80;79.70;;;;;;5075773;28;20040;-75
2022/03/17 04:39:47;;;;;;;22.75;10.13;;;5.80;79.60;;;;;;5080982;28;20678;-74
2022/03/17 04:42:14;;;;;;;24.48;10.30;;;5.70;79.70;;;;;;5073205;28;20048;-75
2022/03/17 04:44:42;;;;;;;23.55;10.35;;;5.70;79.70;;;;;;5097745;28;20043;-75
2022/03/17 04:47:09;;;;;;;23.48;10.63;;;5.70;79.60;;;;;;5094148;28;20048;-75
2022/03/17 04:49:36;;;;;;;23.73;10.73;;;5.60;79.70;;;;;;5094476;28;20051;-75
2022/03/17 04:53:26;;;;;;;30.65;11.52;;;5.70;79.70;;;;;;5079348;28;20043;-75
2022/03/17 04:54:50;;;;;;;27.60;11.20;;;5.70;79.20;;;;;;5093641;28;20489;-75
2022/03/17 04:57:17;;;;;;;26.52;12.32;;;5.90;78.50;;;;;;5093159;28;20048;-75
2022/03/17 04:59:44;;;;;;;26.50;12.20;;;5.90;78.30;;;;;;5092846;28;20044;-75
2022/03/17 05:02:13;;;;;;;33.28;13.15;;;6.00;77.60;;;;;;5098264;28;20043;-75
2022/03/17 05:04:40;;;;;;;33.25;12.70;;;5.90;77.40;;;;;;5112391;27;20048;-75
2022/03/17 05:07:07;;;;;;;40.83;17.92;;;5.90;77.60;;;;;;5092400;28;20043;-75
2022/03/17 05:09:34;;;;;;;50.75;22.67;;;5.60;78.40;;;;;;5080590;28;20055;-75
2022/03/17 05:12:03;;;;;;;55.65;25.05;;;5.60;78.50;;;;;;5097523;28;20051;-75
2022/03/17 05:14:30;;;;;;;52.08;24.42;;;5.70;78.10;;;;;;5095504;28;20195;-75
2022/03/17 05:16:57;;;;;;;53.25;23.38;;;5.80;77.60;;;;;;5096100;28;20047;-75
2022/03/17 05:19:24;;;;;;;42.67;19.80;;;5.70;77.70;;;;;;5095074;28;20117;-75
2022/03/17 05:21:52;;;;;;;54.50;24.60;;;5.70;78.00;;;;;;5096385;28;20097;-75
2022/03/17 05:24:19;;;;;;;59.22;24.98;;;5.80;77.70;;;;;;5094191;28;20048;-75
2022/03/17 05:26:47;;;;;;;50.47;19.88;;;5.90;77.60;;;;;;5093053;28;20442;-75
2022/03/17 05:29:14;;;;;;;43.20;18.73;;;6.00;77.00;;;;;;5095333;28;20066;-75
2022/03/17 05:31:42;;;;;;;40.42;17.40;;;6.10;76.60;;;;;;5095411;28;20759;-75
2022/03/17 05:34:09;;;;;;;41.92;16.30;;;6.00;76.40;;;;;;5093503;28;20054;-75
2022/03/17 05:36:36;;;;;;;32.70;15.38;;;6.00;76.40;;;;;;5092608;28;20050;-75
2022/03/17 05:39:03;;;;;;;31.40;12.80;;;6.10;76.20;;;;;;5080863;27;20040;-75
2022/03/17 05:41:30;;;;;;;33.65;13.82;;;6.10;76.40;;;;;;5114504;27;20047;-75
2022/03/17 05:43:57;;;;;;;31.45;13.48;;;6.10;76.30;;;;;;5081063;27;20051;-75
2022/03/17 05:46:25;;;;;;;29.25;12.65;;;6.00;77.10;;;;;;5082780;27;20047;-75
2022/03/17 05:48:53;;;;;;;30.85;13.90;;;6.10;76.80;;;;;;5099347;27;20053;-75
2022/03/17 05:51:20;;;;;;;33.92;14.85;;;6.10;76.80;;;;;;5079546;27;21133;-75
2022/03/17 05:53:47;;;;;;;32.92;14.88;;;6.10;76.90;;;;;;5099539;27;20111;-75
2022/03/17 05:56:14;;;;;;;36.03;15.45;;;6.10;76.70;;;;;;5097641;27;20058;-75
2022/03/17 05:58:41;;;;;;;39.90;16.63;;;6.00;77.00;;;;;;5111750;27;20050;-75
2022/03/17 06:01:08;;;;;;;42.33;18.27;;;6.10;76.80;;;;;;5084185;27;20043;-75
2022/03/17 06:03:35;;;;;;;50.47;22.10;;;6.20;76.30;;;;;;5098351;27;20066;-75
2022/03/17 06:06:03;;;;;;;46.35;20.50;;;6.30;76.00;;;;;;5098773;27;20067;-75
2022/03/17 06:08:30;;;;;;;43.42;18.80;;;6.30;76.50;;;;;;5075883;27;20494;-75
2022/03/17 06:10:57;;;;;;;37.97;18.95;;;6.40;76.60;;;;;;5098283;27;20043;-75
2022/03/17 06:13:25;;;;;;;34.72;15.57;;;6.50;75.80;;;;;;5114649;27;20044;-75
2022/03/17 06:15:52;;;;;;;36.30;15.48;;;6.50;76.30;;;;;;5097045;27;20055;-75
2022/03/17 06:18:19;;;;;;;53.90;21.98;;;6.40;77.00;;;;;;5113618;27;20031;-75
2022/03/17 06:20:46;;;;;;;60.72;23.30;;;6.40;76.60;;;;;;5115419;27;20039;-75
2022/03/17 06:23:13;;;;;;;61.30;24.55;;;6.50;77.30;;;;;;5080892;27;20149;-75
2022/03/17 06:25:40;;;;;;;71.15;28.00;;;6.40;77.70;;;;;;5111119;27;20042;-75
2022/03/17 06:28:10;;;;;;;81.28;33.42;;;6.60;77.20;;;;;;5113383;27;20070;-75
2022/03/17 06:30:37;;;;;;;72.30;29.15;;;6.60;77.20;;;;;;5112738;27;20073;-75
2022/03/17 06:33:06;;;;;;;58.67;25.45;;;6.90;76.80;;;;;;5091067;27;20050;-75
2022/03/17 06:35:33;;;;;;;48.22;19.85;;;7.00;76.20;;;;;;5095585;27;20139;-75
2022/03/17 06:38:04;;;;;;;40.00;18.48;;;7.00;75.80;;;;;;5097726;27;20689;-75
2022/03/17 06:40:31;;;;;;;38.88;17.23;;;7.20;74.70;;;;;;5094579;27;20055;-75
2022/03/17 06:42:59;;;;;;;39.50;17.17;;;7.30;73.40;;;;;;5111232;27;20658;-75
2022/03/17 06:45:26;;;;;;;38.92;16.77;;;7.40;72.30;;;;;;5098007;27;20527;-75
2022/03/17 06:47:54;;;;;;;35.00;16.33;;;7.40;72.20;;;;;;5096222;27;20044;-75
2022/03/17 06:50:22;;;;;;;36.50;14.50;;;7.50;71.70;;;;;;5097333;27;20450;-75
2022/03/17 06:52:50;;;;;;;35.05;15.38;;;7.50;71.40;;;;;;5112449;27;20031;-75
2022/03/17 06:55:18;;;;;;;37.90;15.73;;;7.50;71.50;;;;;;5079876;27;20054;-75
2022/03/17 06:57:45;;;;;;;35.28;15.50;;;7.60;71.50;;;;;;5101250;27;20050;-75
2022/03/17 07:00:15;;;;;;;35.20;14.48;;;7.70;71.20;;;;;;5083561;27;20050;-75
2022/03/17 07:02:42;;;;;;;33.17;13.88;;;7.80;71.00;;;;;;5082763;27;20039;-75
2022/03/17 07:05:10;;;;;;;35.33;14.45;;;7.90;70.70;;;;;;5082960;27;20721;-75
2022/03/17 07:07:38;;;;;;;32.47;14.57;;;7.80;70.10;;;;;;5083984;27;20058;-75
2022/03/17 07:10:07;;;;;;;34.88;15.05;;;7.80;70.60;;;;;;5056235;27;20212;-75
2022/03/17 07:12:35;;;;;;;28.70;13.82;;;7.90;70.70;;;;;;5061912;27;20806;-75
2022/03/17 07:15:03;;;;;;;33.92;13.95;;;7.80;71.40;;;;;;5082565;27;20090;-75
2022/03/17 07:17:41;;;;;;;32.03;14.63;;;7.90;71.00;;;;;;5084981;27;20043;-75
2022/03/17 07:20:12;;;;;;;34.38;14.77;;;7.90;71.20;;;;;;5064438;27;21132;-75
2022/03/17 07:22:41;;;;;;;34.28;15.15;;;8.00;71.60;;;;;;5045541;27;20047;-75
2022/03/17 07:25:10;;;;;;;31.60;14.02;;;8.00;71.30;;;;;;5047928;27;20043;-75
2022/03/17 07:27:40;;;;;;;31.00;14.40;;;8.20;71.40;;;;;;5081729;27;20051;-75
2022/03/17 07:30:18;;;;;;;40.00;14.65;;;8.10;71.20;;;;;;5062409;27;20039;-75
2022/03/17 07:32:59;;;;;;;29.23;13.18;;;8.20;71.70;;;;;;5082957;27;20046;-75
2022/03/17 07:35:27;;;;;;;29.13;13.25;;;8.20;72.10;;;;;;5062775;27;20181;-75
2022/03/17 07:37:56;;;;;;;29.30;13.55;;;8.40;72.10;;;;;;5070054;27;20047;-75
2022/03/17 07:40:25;;;;;;;31.83;13.75;;;8.30;71.10;;;;;;5061428;28;20052;-75
2022/03/17 07:42:52;;;;;;;35.38;14.52;;;8.30;70.90;;;;;;5066764;27;20458;-75
2022/03/17 07:45:25;;;;;;;;;;;8.20;71.80;;;;;;5073073;28;20140;-75
2022/03/17 07:48:11;;;;;;;28.67;12.73;;;8.30;71.90;;;;;;5067386;28;20625;-75
2022/03/17 07:50:50;;;;;;;27.98;13.50;;;8.40;71.90;;;;;;5075361;28;20188;-75
2022/03/17 07:53:17;;;;;;;27.88;12.98;;;8.50;71.90;;;;;;5049064;28;20140;-75
2022/03/17 07:55:45;;;;;;;28.70;14.73;;;8.50;72.10;;;;;;5063939;28;20047;-75
2022/03/17 07:58:13;;;;;;;27.40;13.20;;;8.70;72.00;;;;;;5065462;28;20043;-75
2022/03/17 08:00:42;;;;;;;30.60;13.98;;;8.80;71.50;;;;;;5081853;28;20050;-75
2022/03/17 08:03:09;;;;;;;33.95;14.63;;;8.70;71.30;;;;;;5047931;28;20496;-75
2022/03/17 08:05:37;;;;;;;27.83;12.35;;;8.80;71.20;;;;;;5064712;28;20228;-75
2022/03/17 08:08:04;;;;;;;25.80;12.95;;;8.80;71.40;;;;;;5067798;28;20145;-75
2022/03/17 08:10:31;;;;;;;30.67;14.82;;;9.00;71.00;;;;;;5061872;28;20051;-75
2022/03/17 08:13:00;;;;;;;30.33;14.18;;;9.00;70.80;;;;;;5081902;28;20043;-78
2022/03/17 08:15:27;;;;;;;30.38;14.63;;;9.10;70.70;;;;;;5082437;28;20054;-75
2022/03/17 08:17:54;;;;;;;27.50;13.20;;;9.30;70.30;;;;;;5083533;28;20050;-74
2022/03/17 08:20:23;;;;;;;28.60;14.00;;;9.30;70.30;;;;;;5067918;28;20039;-74
2022/03/17 08:22:50;;;;;;;30.45;13.93;;;9.30;70.50;;;;;;5081269;28;20043;-74
2022/03/17 08:25:17;;;;;;;30.08;14.05;;;9.30;70.50;;;;;;5081474;28;20128;-75
2022/03/17 08:27:44;;;;;;;31.70;13.38;;;9.50;70.90;;;;;;5065503;28;20086;-75
2022/03/17 08:30:12;;;;;;;31.38;14.40;;;9.60;69.90;;;;;;5068800;28;20100;-75
2022/03/17 08:32:40;;;;;;;31.13;15.00;;;9.70;70.10;;;;;;5064520;28;20071;-75
2022/03/17 08:35:09;;;;;;;31.02;14.07;;;10.00;69.80;;;;;;5050387;28;20511;-75
2022/03/17 08:37:41;;;;;;;30.52;13.55;;;10.00;70.10;;;;;;5063754;28;20035;-75
2022/03/17 08:40:09;;;;;;;23.13;10.70;;;10.20;70.10;;;;;;5065658;28;20108;-75
2022/03/17 08:42:37;;;;;;;21.35;9.90;;;10.30;71.00;;;;;;5078809;28;20054;-75
2022/03/17 08:49:18;;;;;;;16.95;9.27;;;10.30;71.80;;;;;;5064339;28;20063;-75
2022/03/17 08:50:40;;;;;;;21.80;10.30;;;10.40;73.10;;;;;;5062270;28;20061;-75
2022/03/17 08:53:07;;;;;;;19.40;9.35;;;10.50;73.40;;;;;;5069773;28;20821;-75
2022/03/17 08:55:36;;;;;;;20.00;8.65;;;10.60;73.70;;;;;;5050607;28;20101;-75
2022/03/17 08:58:04;;;;;;;23.50;9.20;;;10.80;72.90;;;;;;5067232;28;20153;-75
2022/03/17 09:00:34;;;;;;;22.02;9.48;;;10.80;72.80;;;;;;5053932;28;20182;-75
2022/03/17 09:03:02;;;;;;;18.13;8.75;;;10.80;73.30;;;;;;5080956;28;20040;-75
2022/03/17 09:05:30;;;;;;;18.58;9.38;;;11.00;73.50;;;;;;5050914;27;20148;-75
2022/03/17 09:07:57;;;;;;;19.15;10.20;;;11.10;72.60;;;;;;5066696;27;20077;-75
2022/03/17 09:10:24;;;;;;;18.98;10.02;;;11.30;72.10;;;;;;5085218;27;20048;-75
2022/03/17 09:12:55;;;;;;;17.45;9.15;;;11.30;71.70;;;;;;5051766;27;20529;-75
2022/03/17 09:15:23;;;;;;;20.45;10.05;;;11.40;71.70;;;;;;5049378;27;20674;-77
2022/03/17 09:17:50;;;;;;;18.52;9.40;;;11.60;70.70;;;;;;5053609;27;20055;-77
2022/03/17 09:20:18;;;;;;;19.65;9.52;;;11.50;70.90;;;;;;5071052;27;20055;-77
2022/03/17 09:22:45;;;;;;;21.88;10.50;;;11.60;70.70;;;;;;5057489;27;20063;-75
2022/03/17 09:25:12;;;;;;;18.55;9.57;;;11.60;70.40;;;;;;5065975;27;20054;-77
2022/03/17 09:27:43;;;;;;;18.58;10.23;;;11.70;71.10;;;;;;5078724;27;20039;-75
2022/03/17 09:30:11;;;;;;;16.13;9.50;;;11.80;70.60;;;;;;5047380;27;20176;-76
2022/03/17 09:32:38;;;;;;;18.02;9.50;;;12.00;70.50;;;;;;5052178;27;20066;-76
2022/03/17 09:35:07;;;;;;;20.75;10.40;;;12.10;69.30;;;;;;5062834;27;20047;-75
2022/03/17 09:37:34;;;;;;;19.80;9.80;;;12.10;69.70;;;;;;5045370;27;20059;-76
2022/03/17 09:40:01;;;;;;;18.00;10.23;;;12.20;68.70;;;;;;5064195;27;20971;-76
2022/03/17 09:42:29;;;;;;;16.13;9.82;;;12.40;68.70;;;;;;5056672;27;20501;-76
2022/03/17 09:44:56;;;;;;;20.42;9.23;;;12.40;68.30;;;;;;5045937;27;20054;-75
2022/03/17 09:47:27;;;;;;;18.05;8.75;;;12.50;68.00;;;;;;5071087;27;20059;-75
2022/03/17 09:49:56;;;;;;;20.08;9.50;;;12.60;67.50;;;;;;5046314;27;20051;-75
2022/03/17 09:52:23;;;;;;;25.33;10.80;;;12.60;67.20;;;;;;5052489;27;20054;-74
2022/03/17 09:54:52;;;;;;;17.65;10.00;;;12.70;66.60;;;;;;5081483;27;20050;-73
2022/03/17 09:57:20;;;;;;;17.55;10.10;;;12.50;66.60;;;;;;5037573;27;20124;-73
2022/03/17 09:59:49;;;;;;;21.05;10.25;;;12.60;66.80;;;;;;5055025;27;20100;-73
2022/03/17 10:02:17;;;;;;;20.02;11.30;;;12.50;66.70;;;;;;5053514;27;20185;-73
2022/03/17 10:04:45;;;;;;;19.83;9.82;;;12.60;67.10;;;;;;5053821;27;20043;-73
2022/03/17 10:07:12;;;;;;;19.75;10.13;;;12.60;67.20;;;;;;5058545;27;20059;-74
2022/03/17 10:09:40;;;;;;;20.13;10.98;;;12.80;66.60;;;;;;5056825;27;20138;-74
2022/03/17 10:12:09;;;;;;;20.27;10.32;;;12.80;66.40;;;;;;5074765;27;20051;-73
2022/03/17 10:14:42;;;;;;;18.00;8.60;;;12.90;66.60;;;;;;5037503;27;20070;-73
2022/03/17 10:17:35;;;;;;;;;;;13.00;64.80;;;;;;5040070;27;20508;-73
2022/03/17 10:20:15;;;;;;;;;;;13.00;64.70;;;;;;5055390;27;19934;-74
2022/03/17 10:22:51;;;;;;;22.25;9.60;;;13.10;64.10;;;;;;5063960;27;19928;-73
2022/03/17 10:25:20;;;;;;;19.30;9.95;;;12.90;64.50;;;;;;5056538;27;20132;-74
2022/03/17 10:27:54;;;;;;;17.45;9.35;;;13.10;65.40;;;;;;5060496;27;20126;-73
2022/03/17 10:30:34;;;;;;;18.70;9.45;;;13.30;63.50;;;;;;5055520;27;22522;-73
2022/03/17 10:33:14;;;;;;;18.50;9.32;;;13.40;63.30;;;;;;5054961;27;20047;-74
2022/03/17 10:35:49;;;;;;;18.70;10.10;;;13.40;63.40;;;;;;5066627;27;20115;-74
2022/03/17 10:38:22;;;;;;;21.40;9.68;;;13.50;61.20;;;;;;5071421;27;20036;-73
2022/03/17 10:41:00;;;;;;;;;;;13.40;61.00;;;;;;5074792;27;20205;-74
2022/03/17 10:43:29;;;;;;;18.08;9.10;;;13.50;61.60;;;;;;5060100;27;20038;-73
2022/03/17 10:46:16;;;;;;;17.65;9.40;;;13.40;61.70;;;;;;5054346;27;20047;-73
2022/03/17 10:48:59;;;;;;;16.38;9.80;;;13.60;60.70;;;;;;5081953;27;22413;-76
2022/03/17 10:51:34;;;;;;;;;;;13.70;60.50;;;;;;5066477;27;20051;-73
2022/03/17 10:54:06;;;;;;;18.45;9.05;;;13.60;60.90;;;;;;5068929;27;21110;-73
2022/03/17 10:56:35;;;;;;;18.85;9.73;;;13.70;61.00;;;;;;5053007;27;20179;-73
2022/03/17 10:59:03;;;;;;;17.73;9.02;;;13.70;61.30;;;;;;5073269;27;20132;-73
2022/03/17 11:01:46;;;;;;;18.40;9.95;;;13.60;61.50;;;;;;5053421;27;20838;-73
2022/03/17 11:04:14;;;;;;;21.63;10.82;;;13.50;62.00;;;;;;5052371;27;20051;-73
2022/03/17 11:06:41;;;;;;;15.23;9.02;;;13.60;61.60;;;;;;5071768;27;20074;-73
2022/03/17 11:09:09;;;;;;;16.85;9.38;;;13.60;61.30;;;;;;5051998;27;20078;-73
2022/03/17 11:11:39;;;;;;;17.92;9.35;;;13.60;61.70;;;;;;5073238;27;20039;-73
2022/03/17 11:14:09;;;;;;;19.42;9.88;;;13.60;61.40;;;;;;5055813;27;20050;-72
2022/03/17 11:16:43;;;;;;;17.85;9.15;;;13.70;61.30;;;;;;5065887;27;20081;-72
2022/03/17 11:19:13;;;;;;;18.00;9.82;;;13.80;60.40;;;;;;5069113;27;20031;-73
2022/03/17 11:21:46;;;;;;;18.95;10.32;;;13.80;60.10;;;;;;5071572;27;20638;-73
2022/03/17 11:24:21;;;;;;;17.33;9.90;;;13.90;60.60;;;;;;5071334;27;20047;-73
2022/03/17 11:26:51;;;;;;;20.63;9.52;;;13.90;60.50;;;;;;5049768;27;20066;-73
2022/03/17 11:29:21;;;;;;;17.33;10.15;;;13.90;60.80;;;;;;5048407;27;20120;-74
2022/03/17 11:31:57;;;;;;;19.58;10.52;;;14.10;60.20;;;;;;5070697;27;21391;-74
2022/03/17 11:34:39;;;;;;;20.58;10.95;;;14.10;59.40;;;;;;5057068;28;22387;-74
2022/03/17 11:37:20;;;;;;;18.85;9.85;;;14.10;59.90;;;;;;5059719;27;20055;-73
2022/03/17 11:39:50;;;;;;;18.98;10.25;;;13.90;60.20;;;;;;5075513;27;20198;-75
2022/03/17 11:42:57;;;;;;;19.25;10.60;;;13.90;59.70;;;;;;5077203;27;20059;-75
2022/03/17 11:45:34;;;;;;;20.73;10.98;;;13.80;59.60;;;;;;5066786;27;20060;-74
2022/03/17 11:48:06;;;;;;;21.73;11.57;;;13.80;59.30;;;;;;5051455;27;20060;-73
2022/03/17 11:50:34;;;;;;;22.40;10.73;;;13.70;59.40;;;;;;5078411;27;20047;-75
2022/03/17 11:53:03;;;;;;;23.77;11.50;;;13.70;59.70;;;;;;5064250;27;20048;-73
2022/03/17 11:55:42;;;;;;;22.15;11.50;;;13.50;60.40;;;;;;5072991;27;20824;-73
2022/03/17 11:58:46;;;;;;;24.02;11.00;;;13.50;60.70;;;;;;5070442;27;20490;-73
2022/03/17 12:01:22;;;;;;;20.90;10.88;;;13.50;60.10;;;;;;5056839;27;20054;-75
2022/03/17 12:03:56;;;;;;;18.90;10.32;;;13.50;60.40;;;;;;5077530;27;20081;-75
2022/03/17 12:06:31;;;;;;;20.25;10.95;;;13.40;60.40;;;;;;5059294;28;20723;-75
2022/03/17 12:09:09;;;;;;;19.75;10.50;;;13.40;61.30;;;;;;5079648;27;20043;-75
2022/03/17 12:11:42;;;;;;;18.58;10.15;;;13.40;61.40;;;;;;5079240;27;20043;-75
2022/03/17 12:14:18;;;;;;;19.92;10.48;;;13.40;61.20;;;;;;5064332;28;20066;-75
2022/03/17 12:17:16;;;;;;;20.25;10.55;;;13.40;60.70;;;;;;5064718;27;22460;-75
2022/03/17 12:19:49;;;;;;;20.95;11.15;;;13.40;60.40;;;;;;5086139;27;20043;-75
2022/03/17 12:22:33;;;;;;;19.77;10.90;;;13.50;60.00;;;;;;5067665;28;21005;-75
2022/03/17 12:25:16;;;;;;;19.45;10.05;;;13.50;59.60;;;;;;5074548;27;20048;-75
2022/03/17 12:27:49;;;;;;;19.95;10.18;;;13.50;60.10;;;;;;5075627;27;20046;-75
2022/03/17 12:30:20;;;;;;;20.80;11.27;;;13.50;59.80;;;;;;5057185;27;20059;-75
2022/03/17 12:32:53;;;;;;;22.42;11.52;;;13.40;60.10;;;;;;5063330;27;20196;-75
2022/03/17 12:35:26;;;;;;;24.02;11.60;;;13.50;59.20;;;;;;5059615;28;20078;-75
2022/03/17 12:38:04;;;;;;;20.10;10.57;;;13.50;59.50;;;;;;5074878;27;20135;-73
2022/03/17 12:40:47;;;;;;;19.58;10.10;;;13.60;59.30;;;;;;5051162;27;20055;-73
2022/03/17 12:43:21;;;;;;;20.17;9.43;;;13.40;60.10;;;;;;5055856;27;22007;-73
2022/03/17 12:45:51;;;;;;;16.10;9.80;;;13.40;60.50;;;;;;5054158;27;20058;-73
2022/03/17 12:48:20;;;;;;;19.23;9.82;;;13.40;60.40;;;;;;5076358;27;20051;-73
2022/03/17 12:50:47;;;;;;;22.90;11.35;;;13.40;60.30;;;;;;5063293;27;20039;-72
2022/03/17 12:53:14;;;;;;;18.98;10.25;;;13.50;59.80;;;;;;5058476;27;22645;-75
2022/03/17 12:55:42;;;;;;;22.45;10.93;;;13.40;60.10;;;;;;5078358;27;20043;-74
2022/03/17 12:58:16;;;;;;;20.30;10.50;;;13.40;60.50;;;;;;5075654;27;22702;-73
2022/03/17 13:00:43;;;;;;;21.08;11.52;;;13.40;60.40;;;;;;5073014;27;20188;-74
2022/03/17 13:03:17;;;;;;;22.40;11.10;;;13.40;59.90;;;;;;5073804;27;20047;-74
2022/03/17 13:08:40;;;;;;;21.77;10.98;;;13.50;60.20;;;;;;5050683;27;20150;-73
2022/03/17 13:14:20;;;;;;;22.02;10.68;;;13.30;62.10;;;;;;5061157;27;20095;-75
2022/03/17 13:17:02;;;;;;;19.63;10.50;;;13.30;63.60;;;;;;5079396;27;20047;-74
2022/03/17 13:19:29;;;;;;;21.58;10.50;;;13.20;62.80;;;;;;5068796;27;20093;-73
2022/03/17 13:22:07;;;;;;;20.58;10.50;;;13.30;62.80;;;;;;5059013;27;20043;-74